sensor_id;sensor_type;location;lat;lon;timestamp;P1;durP1;ratioP1;P2;durP2;ratioP2
57307;SDS011;43152;50.968;18.214;2022-09-09T00:01:43;22.20;;;7.80;;
57307;SDS011;43152;50.968;18.214;2022-09-09T00:09:45;35.10;;;8.00;;
57307;SDS011;43152;50.968;18.214;2022-09-09T00:12:29;14.30;;;7.60;;
57307;SDS011;43152;50.968;18.214;2022-09-09T00:15:22;13.30;;;7.40;;
57307;SDS011;43152;50.968;18.214;2022-09-09T00:17:59;14.60;;;8.40;;
57307;SDS011;43152;50.968;18.214;2022-09-09T00:20:37;17.00;;;8.10;;
57307;SDS011;43152;50.968;18.214;2022-09-09T00:23:27;13.70;;;8.10;;
57307;SDS011;43152;50.968;18.214;2022-09-09T00:31:17;16.70;;;9.30;;
57307;SDS011;43152;50.968;18.214;2022-09-09T00:33:46;15.70;;;9.60;;
57307;SDS011;43152;50.968;18.214;2022-09-09T00:36:16;15.70;;;10.00;;
57307;SDS011;43152;50.968;18.214;2022-09-09T00:38:48;17.50;;;10.10;;
57307;SDS011;43152;50.968;18.214;2022-09-09T00:43:50;17.80;;;11.20;;
57307;SDS011;43152;50.968;18.214;2022-09-09T00:55:41;29.10;;;13.90;;
57307;SDS011;43152;50.968;18.214;2022-09-09T00:58:06;29.10;;;13.70;;
57307;SDS011;43152;50.968;18.214;2022-09-09T01:06:14;37.30;;;12.90;;
57307;SDS011;43152;50.968;18.214;2022-09-09T01:11:22;46.20;;;13.00;;
57307;SDS011;43152;50.968;18.214;2022-09-09T01:13:56;25.30;;;12.90;;
57307;SDS011;43152;50.968;18.214;2022-09-09T01:16:27;27.80;;;12.40;;
57307;SDS011;43152;50.968;18.214;2022-09-09T01:18:54;33.90;;;13.70;;
57307;SDS011;43152;50.968;18.214;2022-09-09T01:26:48;34.80;;;14.50;;
57307;SDS011;43152;50.968;18.214;2022-09-09T01:29:17;27.10;;;14.60;;
57307;SDS011;43152;50.968;18.214;2022-09-09T01:34:18;28.50;;;15.60;;
57307;SDS011;43152;50.968;18.214;2022-09-09T01:36:46;30.30;;;15.10;;
57307;SDS011;43152;50.968;18.214;2022-09-09T01:39:16;32.40;;;16.80;;
57307;SDS011;43152;50.968;18.214;2022-09-09T01:41:42;30.30;;;16.60;;
57307;SDS011;43152;50.968;18.214;2022-09-09T01:44:08;31.70;;;17.10;;
57307;SDS011;43152;50.968;18.214;2022-09-09T01:46:34;32.10;;;17.30;;
57307;SDS011;43152;50.968;18.214;2022-09-09T01:48:59;33.30;;;17.20;;
57307;SDS011;43152;50.968;18.214;2022-09-09T01:51:26;34.00;;;17.20;;
57307;SDS011;43152;50.968;18.214;2022-09-09T01:53:53;30.60;;;17.20;;
57307;SDS011;43152;50.968;18.214;2022-09-09T01:56:25;33.60;;;17.70;;
57307;SDS011;43152;50.968;18.214;2022-09-09T01:59:09;33.90;;;17.10;;
57307;SDS011;43152;50.968;18.214;2022-09-09T02:04:43;32.10;;;16.00;;
57307;SDS011;43152;50.968;18.214;2022-09-09T02:07:24;28.40;;;16.90;;
57307;SDS011;43152;50.968;18.214;2022-09-09T02:12:41;30.50;;;16.50;;
57307;SDS011;43152;50.968;18.214;2022-09-09T02:15:17;29.70;;;17.00;;
57307;SDS011;43152;50.968;18.214;2022-09-09T02:17:51;26.90;;;16.90;;
57307;SDS011;43152;50.968;18.214;2022-09-09T02:20:18;25.90;;;15.70;;
57307;SDS011;43152;50.968;18.214;2022-09-09T02:22:45;29.00;;;16.40;;
57307;SDS011;43152;50.968;18.214;2022-09-09T02:25:15;25.90;;;15.80;;
57307;SDS011;43152;50.968;18.214;2022-09-09T02:27:43;29.70;;;16.50;;
57307;SDS011;43152;50.968;18.214;2022-09-09T02:30:11;26.30;;;16.10;;
57307;SDS011;43152;50.968;18.214;2022-09-09T02:32:37;24.10;;;15.90;;
57307;SDS011;43152;50.968;18.214;2022-09-09T02:35:15;24.00;;;15.50;;
57307;SDS011;43152;50.968;18.214;2022-09-09T02:37:45;25.00;;;15.60;;
57307;SDS011;43152;50.968;18.214;2022-09-09T02:40:15;24.40;;;15.20;;
57307;SDS011;43152;50.968;18.214;2022-09-09T02:42:41;23.40;;;15.30;;
57307;SDS011;43152;50.968;18.214;2022-09-09T02:45:09;22.70;;;14.70;;
57307;SDS011;43152;50.968;18.214;2022-09-09T02:47:58;22.60;;;14.50;;
57307;SDS011;43152;50.968;18.214;2022-09-09T02:50:38;20.80;;;14.40;;
57307;SDS011;43152;50.968;18.214;2022-09-09T02:56:04;22.70;;;15.70;;
57307;SDS011;43152;50.968;18.214;2022-09-09T02:58:32;22.70;;;14.90;;
57307;SDS011;43152;50.968;18.214;2022-09-09T03:00:58;22.80;;;15.20;;
57307;SDS011;43152;50.968;18.214;2022-09-09T03:03:27;23.60;;;15.60;;
57307;SDS011;43152;50.968;18.214;2022-09-09T03:05:53;21.40;;;14.90;;
57307;SDS011;43152;50.968;18.214;2022-09-09T03:08:19;21.50;;;15.00;;
57307;SDS011;43152;50.968;18.214;2022-09-09T03:10:45;23.10;;;14.70;;
57307;SDS011;43152;50.968;18.214;2022-09-09T03:13:11;20.50;;;14.60;;
57307;SDS011;43152;50.968;18.214;2022-09-09T03:15:38;22.10;;;15.40;;
57307;SDS011;43152;50.968;18.214;2022-09-09T03:18:03;24.90;;;16.80;;
57307;SDS011;43152;50.968;18.214;2022-09-09T03:20:30;25.50;;;17.80;;
57307;SDS011;43152;50.968;18.214;2022-09-09T03:22:56;25.40;;;17.50;;
57307;SDS011;43152;50.968;18.214;2022-09-09T03:25:22;24.10;;;16.90;;
57307;SDS011;43152;50.968;18.214;2022-09-09T03:27:52;25.90;;;17.40;;
57307;SDS011;43152;50.968;18.214;2022-09-09T03:30:23;23.50;;;15.90;;
57307;SDS011;43152;50.968;18.214;2022-09-09T03:32:50;23.30;;;17.00;;
57307;SDS011;43152;50.968;18.214;2022-09-09T03:35:16;25.70;;;16.00;;
57307;SDS011;43152;50.968;18.214;2022-09-09T03:37:42;23.00;;;16.40;;
57307;SDS011;43152;50.968;18.214;2022-09-09T03:40:08;23.60;;;16.80;;
57307;SDS011;43152;50.968;18.214;2022-09-09T03:42:38;25.20;;;16.20;;
57307;SDS011;43152;50.968;18.214;2022-09-09T03:45:05;19.90;;;14.90;;
57307;SDS011;43152;50.968;18.214;2022-09-09T03:47:33;23.40;;;15.70;;
57307;SDS011;43152;50.968;18.214;2022-09-09T03:49:58;22.30;;;17.40;;
57307;SDS011;43152;50.968;18.214;2022-09-09T03:52:24;22.60;;;16.30;;
57307;SDS011;43152;50.968;18.214;2022-09-09T03:54:51;21.50;;;16.80;;
57307;SDS011;43152;50.968;18.214;2022-09-09T03:57:18;23.00;;;16.10;;
57307;SDS011;43152;50.968;18.214;2022-09-09T03:59:44;22.00;;;15.00;;
57307;SDS011;43152;50.968;18.214;2022-09-09T04:02:10;19.70;;;14.40;;
57307;SDS011;43152;50.968;18.214;2022-09-09T04:04:35;19.30;;;14.10;;
57307;SDS011;43152;50.968;18.214;2022-09-09T04:07:01;20.10;;;15.10;;
57307;SDS011;43152;50.968;18.214;2022-09-09T04:09:28;22.30;;;16.20;;
57307;SDS011;43152;50.968;18.214;2022-09-09T04:11:54;21.00;;;15.00;;
57307;SDS011;43152;50.968;18.214;2022-09-09T04:14:20;20.90;;;15.20;;
57307;SDS011;43152;50.968;18.214;2022-09-09T04:16:46;20.80;;;16.50;;
57307;SDS011;43152;50.968;18.214;2022-09-09T04:19:12;23.40;;;15.70;;
57307;SDS011;43152;50.968;18.214;2022-09-09T04:21:40;20.80;;;16.40;;
57307;SDS011;43152;50.968;18.214;2022-09-09T04:24:09;22.00;;;16.30;;
57307;SDS011;43152;50.968;18.214;2022-09-09T04:26:35;20.80;;;15.50;;
57307;SDS011;43152;50.968;18.214;2022-09-09T04:29:03;19.40;;;15.80;;
57307;SDS011;43152;50.968;18.214;2022-09-09T04:31:29;20.50;;;16.30;;
57307;SDS011;43152;50.968;18.214;2022-09-09T04:33:55;23.60;;;18.60;;
57307;SDS011;43152;50.968;18.214;2022-09-09T04:36:21;22.30;;;16.70;;
57307;SDS011;43152;50.968;18.214;2022-09-09T04:38:47;24.00;;;17.80;;
57307;SDS011;43152;50.968;18.214;2022-09-09T04:41:14;24.30;;;18.50;;
57307;SDS011;43152;50.968;18.214;2022-09-09T04:43:41;21.10;;;16.90;;
57307;SDS011;43152;50.968;18.214;2022-09-09T04:46:08;19.20;;;15.90;;
57307;SDS011;43152;50.968;18.214;2022-09-09T04:48:34;24.20;;;17.50;;
57307;SDS011;43152;50.968;18.214;2022-09-09T04:51:06;25.80;;;18.60;;
57307;SDS011;43152;50.968;18.214;2022-09-09T04:53:34;24.10;;;17.60;;
57307;SDS011;43152;50.968;18.214;2022-09-09T04:56:01;22.70;;;17.90;;
57307;SDS011;43152;50.968;18.214;2022-09-09T04:58:30;18.20;;;15.00;;
57307;SDS011;43152;50.968;18.214;2022-09-09T05:01:03;20.70;;;16.20;;
57307;SDS011;43152;50.968;18.214;2022-09-09T05:03:31;20.00;;;15.50;;
57307;SDS011;43152;50.968;18.214;2022-09-09T05:06:07;20.50;;;14.90;;
57307;SDS011;43152;50.968;18.214;2022-09-09T05:08:36;20.70;;;16.50;;
57307;SDS011;43152;50.968;18.214;2022-09-09T05:11:02;20.40;;;15.90;;
57307;SDS011;43152;50.968;18.214;2022-09-09T05:13:28;19.10;;;15.80;;
57307;SDS011;43152;50.968;18.214;2022-09-09T05:15:54;20.10;;;15.60;;
57307;SDS011;43152;50.968;18.214;2022-09-09T05:18:20;18.90;;;14.40;;
57307;SDS011;43152;50.968;18.214;2022-09-09T05:20:48;16.90;;;14.40;;
57307;SDS011;43152;50.968;18.214;2022-09-09T05:23:14;17.20;;;12.80;;
57307;SDS011;43152;50.968;18.214;2022-09-09T05:25:40;17.60;;;13.40;;
57307;SDS011;43152;50.968;18.214;2022-09-09T05:28:06;16.90;;;13.70;;
57307;SDS011;43152;50.968;18.214;2022-09-09T05:30:33;18.20;;;13.20;;
57307;SDS011;43152;50.968;18.214;2022-09-09T05:32:59;16.60;;;13.10;;
57307;SDS011;43152;50.968;18.214;2022-09-09T05:35:25;16.00;;;12.00;;
57307;SDS011;43152;50.968;18.214;2022-09-09T05:37:51;16.10;;;12.90;;
57307;SDS011;43152;50.968;18.214;2022-09-09T05:40:16;18.70;;;13.00;;
57307;SDS011;43152;50.968;18.214;2022-09-09T05:42:43;17.80;;;12.70;;
57307;SDS011;43152;50.968;18.214;2022-09-09T05:45:08;14.30;;;11.80;;
57307;SDS011;43152;50.968;18.214;2022-09-09T05:47:34;16.50;;;12.50;;
57307;SDS011;43152;50.968;18.214;2022-09-09T05:50:02;17.40;;;12.30;;
57307;SDS011;43152;50.968;18.214;2022-09-09T05:52:28;15.10;;;11.60;;
57307;SDS011;43152;50.968;18.214;2022-09-09T05:54:54;14.70;;;11.50;;
57307;SDS011;43152;50.968;18.214;2022-09-09T05:57:22;16.00;;;11.50;;
57307;SDS011;43152;50.968;18.214;2022-09-09T05:59:48;15.70;;;11.10;;
57307;SDS011;43152;50.968;18.214;2022-09-09T06:02:13;16.50;;;10.70;;
57307;SDS011;43152;50.968;18.214;2022-09-09T06:04:39;13.30;;;9.70;;
57307;SDS011;43152;50.968;18.214;2022-09-09T06:07:05;11.20;;;8.00;;
57307;SDS011;43152;50.968;18.214;2022-09-09T06:09:32;11.70;;;7.70;;
57307;SDS011;43152;50.968;18.214;2022-09-09T06:11:57;11.60;;;6.10;;
57307;SDS011;43152;50.968;18.214;2022-09-09T06:14:24;13.00;;;6.20;;
57307;SDS011;43152;50.968;18.214;2022-09-09T06:16:50;9.10;;;5.30;;
57307;SDS011;43152;50.968;18.214;2022-09-09T06:19:16;13.40;;;5.50;;
57307;SDS011;43152;50.968;18.214;2022-09-09T06:21:42;9.50;;;5.10;;
57307;SDS011;43152;50.968;18.214;2022-09-09T06:24:09;9.80;;;4.80;;
57307;SDS011;43152;50.968;18.214;2022-09-09T06:26:39;10.40;;;5.40;;
57307;SDS011;43152;50.968;18.214;2022-09-09T06:29:08;9.60;;;5.70;;
57307;SDS011;43152;50.968;18.214;2022-09-09T06:31:35;10.80;;;5.80;;
57307;SDS011;43152;50.968;18.214;2022-09-09T06:34:03;10.70;;;5.90;;
57307;SDS011;43152;50.968;18.214;2022-09-09T06:36:31;10.50;;;6.20;;
57307;SDS011;43152;50.968;18.214;2022-09-09T06:38:58;11.40;;;6.20;;
57307;SDS011;43152;50.968;18.214;2022-09-09T06:41:26;12.50;;;6.60;;
57307;SDS011;43152;50.968;18.214;2022-09-09T06:43:53;10.10;;;6.80;;
57307;SDS011;43152;50.968;18.214;2022-09-09T06:46:22;9.70;;;6.30;;
57307;SDS011;43152;50.968;18.214;2022-09-09T06:48:48;11.30;;;6.40;;
57307;SDS011;43152;50.968;18.214;2022-09-09T06:51:21;10.50;;;6.80;;
57307;SDS011;43152;50.968;18.214;2022-09-09T06:53:50;11.20;;;6.80;;
57307;SDS011;43152;50.968;18.214;2022-09-09T06:58:41;9.90;;;6.90;;
57307;SDS011;43152;50.968;18.214;2022-09-09T07:01:11;18.10;;;7.50;;
57307;SDS011;43152;50.968;18.214;2022-09-09T07:03:39;24.00;;;8.10;;
57307;SDS011;43152;50.968;18.214;2022-09-09T07:06:05;12.30;;;6.90;;
57307;SDS011;43152;50.968;18.214;2022-09-09T07:08:32;10.30;;;5.50;;
57307;SDS011;43152;50.968;18.214;2022-09-09T07:11:02;10.40;;;5.50;;
57307;SDS011;43152;50.968;18.214;2022-09-09T07:13:30;8.70;;;4.80;;
57307;SDS011;43152;50.968;18.214;2022-09-09T07:16:09;10.80;;;5.20;;
57307;SDS011;43152;50.968;18.214;2022-09-09T07:18:38;9.80;;;5.60;;
57307;SDS011;43152;50.968;18.214;2022-09-09T07:21:05;9.60;;;5.30;;
57307;SDS011;43152;50.968;18.214;2022-09-09T07:23:31;9.50;;;5.10;;
57307;SDS011;43152;50.968;18.214;2022-09-09T07:25:58;10.10;;;5.30;;
57307;SDS011;43152;50.968;18.214;2022-09-09T07:28:24;16.80;;;5.80;;
57307;SDS011;43152;50.968;18.214;2022-09-09T07:33:21;11.40;;;5.40;;
57307;SDS011;43152;50.968;18.214;2022-09-09T07:35:48;9.80;;;5.30;;
57307;SDS011;43152;50.968;18.214;2022-09-09T07:38:14;9.80;;;5.40;;
57307;SDS011;43152;50.968;18.214;2022-09-09T07:40:40;10.60;;;5.20;;
57307;SDS011;43152;50.968;18.214;2022-09-09T07:43:08;49.90;;;8.00;;
57307;SDS011;43152;50.968;18.214;2022-09-09T07:45:35;11.50;;;4.70;;
57307;SDS011;43152;50.968;18.214;2022-09-09T07:48:01;9.60;;;5.00;;
57307;SDS011;43152;50.968;18.214;2022-09-09T07:50:27;9.70;;;4.60;;
57307;SDS011;43152;50.968;18.214;2022-09-09T07:52:53;6.40;;;3.70;;
57307;SDS011;43152;50.968;18.214;2022-09-09T07:55:19;8.30;;;3.80;;
57307;SDS011;43152;50.968;18.214;2022-09-09T07:57:45;6.70;;;3.80;;
57307;SDS011;43152;50.968;18.214;2022-09-09T08:00:12;6.80;;;3.60;;
57307;SDS011;43152;50.968;18.214;2022-09-09T08:02:40;8.00;;;3.80;;
57307;SDS011;43152;50.968;18.214;2022-09-09T08:05:06;6.60;;;3.70;;
57307;SDS011;43152;50.968;18.214;2022-09-09T08:07:32;7.50;;;3.50;;
57307;SDS011;43152;50.968;18.214;2022-09-09T08:09:57;6.10;;;2.80;;
57307;SDS011;43152;50.968;18.214;2022-09-09T08:12:23;7.10;;;2.50;;
57307;SDS011;43152;50.968;18.214;2022-09-09T08:14:49;6.00;;;2.70;;
57307;SDS011;43152;50.968;18.214;2022-09-09T08:17:16;6.90;;;2.80;;
57307;SDS011;43152;50.968;18.214;2022-09-09T08:19:43;6.10;;;3.10;;
57307;SDS011;43152;50.968;18.214;2022-09-09T08:22:10;5.80;;;2.80;;
57307;SDS011;43152;50.968;18.214;2022-09-09T08:24:35;7.00;;;2.40;;
57307;SDS011;43152;50.968;18.214;2022-09-09T08:27:01;7.50;;;2.10;;
57307;SDS011;43152;50.968;18.214;2022-09-09T08:29:27;4.90;;;1.90;;
57307;SDS011;43152;50.968;18.214;2022-09-09T08:31:54;5.00;;;1.50;;
57307;SDS011;43152;50.968;18.214;2022-09-09T08:34:23;4.30;;;1.20;;
57307;SDS011;43152;50.968;18.214;2022-09-09T08:36:51;4.20;;;1.40;;
57307;SDS011;43152;50.968;18.214;2022-09-09T08:39:18;4.90;;;1.50;;
57307;SDS011;43152;50.968;18.214;2022-09-09T08:55:20;5.30;;;2.00;;
57307;SDS011;43152;50.968;18.214;2022-09-09T08:57:50;7.00;;;1.90;;
57307;SDS011;43152;50.968;18.214;2022-09-09T09:00:18;5.20;;;1.60;;
57307;SDS011;43152;50.968;18.214;2022-09-09T09:02:49;5.50;;;1.70;;
57307;SDS011;43152;50.968;18.214;2022-09-09T09:05:42;4.60;;;1.50;;
57307;SDS011;43152;50.968;18.214;2022-09-09T09:10:54;4.90;;;1.50;;
57307;SDS011;43152;50.968;18.214;2022-09-09T09:13:26;4.90;;;1.40;;
57307;SDS011;43152;50.968;18.214;2022-09-09T09:16:00;4.20;;;1.50;;
57307;SDS011;43152;50.968;18.214;2022-09-09T09:18:29;4.90;;;1.30;;
57307;SDS011;43152;50.968;18.214;2022-09-09T09:23:58;4.60;;;1.30;;
57307;SDS011;43152;50.968;18.214;2022-09-09T09:26:26;4.00;;;1.10;;
57307;SDS011;43152;50.968;18.214;2022-09-09T09:28:56;4.40;;;1.30;;
57307;SDS011;43152;50.968;18.214;2022-09-09T09:31:22;3.50;;;1.10;;
57307;SDS011;43152;50.968;18.214;2022-09-09T09:33:50;4.60;;;1.00;;
57307;SDS011;43152;50.968;18.214;2022-09-09T09:36:17;5.50;;;1.10;;
57307;SDS011;43152;50.968;18.214;2022-09-09T09:38:57;4.00;;;1.10;;
57307;SDS011;43152;50.968;18.214;2022-09-09T09:41:43;5.20;;;1.10;;
57307;SDS011;43152;50.968;18.214;2022-09-09T09:44:21;3.10;;;1.00;;
57307;SDS011;43152;50.968;18.214;2022-09-09T09:46:49;4.40;;;1.00;;
57307;SDS011;43152;50.968;18.214;2022-09-09T09:49:14;4.70;;;0.90;;
57307;SDS011;43152;50.968;18.214;2022-09-09T09:51:41;4.20;;;1.00;;
57307;SDS011;43152;50.968;18.214;2022-09-09T09:56:41;4.10;;;1.10;;
57307;SDS011;43152;50.968;18.214;2022-09-09T09:59:21;3.50;;;1.20;;
57307;SDS011;43152;50.968;18.214;2022-09-09T10:02:24;3.80;;;1.10;;
57307;SDS011;43152;50.968;18.214;2022-09-09T10:07:31;4.40;;;1.40;;
57307;SDS011;43152;50.968;18.214;2022-09-09T10:09:58;2.60;;;1.10;;
57307;SDS011;43152;50.968;18.214;2022-09-09T10:23:21;5.50;;;1.30;;
57307;SDS011;43152;50.968;18.214;2022-09-09T10:35:19;5.00;;;1.50;;
57307;SDS011;43152;50.968;18.214;2022-09-09T10:49:20;4.50;;;1.00;;
57307;SDS011;43152;50.968;18.214;2022-09-09T10:57:14;3.40;;;0.70;;
57307;SDS011;43152;50.968;18.214;2022-09-09T10:59:48;2.80;;;0.60;;
57307;SDS011;43152;50.968;18.214;2022-09-09T11:02:19;2.80;;;0.60;;
57307;SDS011;43152;50.968;18.214;2022-09-09T11:07:28;3.20;;;0.60;;
57307;SDS011;43152;50.968;18.214;2022-09-09T11:10:02;3.20;;;0.60;;
57307;SDS011;43152;50.968;18.214;2022-09-09T11:15:07;2.40;;;0.60;;
57307;SDS011;43152;50.968;18.214;2022-09-09T11:17:50;3.70;;;0.60;;
57307;SDS011;43152;50.968;18.214;2022-09-09T11:20:20;3.30;;;0.80;;
57307;SDS011;43152;50.968;18.214;2022-09-09T11:22:48;3.00;;;0.70;;
57307;SDS011;43152;50.968;18.214;2022-09-09T11:30:34;3.50;;;0.70;;
57307;SDS011;43152;50.968;18.214;2022-09-09T11:33:36;3.10;;;0.60;;
57307;SDS011;43152;50.968;18.214;2022-09-09T11:41:18;2.40;;;0.50;;
57307;SDS011;43152;50.968;18.214;2022-09-09T11:43:52;1.70;;;0.60;;
57307;SDS011;43152;50.968;18.214;2022-09-09T11:46:22;5.50;;;0.70;;
57307;SDS011;43152;50.968;18.214;2022-09-09T11:49:03;3.10;;;0.60;;
57307;SDS011;43152;50.968;18.214;2022-09-09T11:51:32;3.10;;;0.60;;
57307;SDS011;43152;50.968;18.214;2022-09-09T11:56:56;4.20;;;0.50;;
57307;SDS011;43152;50.968;18.214;2022-09-09T11:59:23;4.70;;;0.70;;
57307;SDS011;43152;50.968;18.214;2022-09-09T12:01:50;3.20;;;0.60;;
57307;SDS011;43152;50.968;18.214;2022-09-09T12:04:35;3.40;;;0.60;;
57307;SDS011;43152;50.968;18.214;2022-09-09T12:07:21;2.90;;;0.60;;
57307;SDS011;43152;50.968;18.214;2022-09-09T12:10:19;2.90;;;0.60;;
57307;SDS011;43152;50.968;18.214;2022-09-09T12:12:55;4.20;;;0.60;;
57307;SDS011;43152;50.968;18.214;2022-09-09T12:15:22;3.30;;;0.60;;
57307;SDS011;43152;50.968;18.214;2022-09-09T12:17:55;4.00;;;0.70;;
57307;SDS011;43152;50.968;18.214;2022-09-09T12:20:26;3.50;;;0.60;;
57307;SDS011;43152;50.968;18.214;2022-09-09T12:28:39;3.20;;;0.60;;
57307;SDS011;43152;50.968;18.214;2022-09-09T12:33:50;3.20;;;0.60;;
57307;SDS011;43152;50.968;18.214;2022-09-09T12:36:19;4.60;;;0.70;;
57307;SDS011;43152;50.968;18.214;2022-09-09T12:38:55;4.70;;;0.60;;
57307;SDS011;43152;50.968;18.214;2022-09-09T12:41:25;4.20;;;0.60;;
57307;SDS011;43152;50.968;18.214;2022-09-09T12:44:03;5.30;;;0.60;;
57307;SDS011;43152;50.968;18.214;2022-09-09T12:46:38;3.80;;;0.50;;
57307;SDS011;43152;50.968;18.214;2022-09-09T12:49:05;2.40;;;0.50;;
57307;SDS011;43152;50.968;18.214;2022-09-09T12:52:04;2.90;;;0.60;;
57307;SDS011;43152;50.968;18.214;2022-09-09T12:54:34;2.90;;;0.60;;
57307;SDS011;43152;50.968;18.214;2022-09-09T12:57:01;4.10;;;0.60;;
57307;SDS011;43152;50.968;18.214;2022-09-09T12:59:35;3.90;;;0.60;;
57307;SDS011;43152;50.968;18.214;2022-09-09T13:02:10;3.20;;;0.50;;
57307;SDS011;43152;50.968;18.214;2022-09-09T13:04:42;4.10;;;0.60;;
57307;SDS011;43152;50.968;18.214;2022-09-09T13:07:08;5.00;;;0.70;;
57307;SDS011;43152;50.968;18.214;2022-09-09T13:09:36;4.30;;;0.50;;
57307;SDS011;43152;50.968;18.214;2022-09-09T13:12:02;4.70;;;0.60;;
57307;SDS011;43152;50.968;18.214;2022-09-09T13:14:34;5.60;;;0.60;;
57307;SDS011;43152;50.968;18.214;2022-09-09T13:17:05;4.20;;;0.90;;
57307;SDS011;43152;50.968;18.214;2022-09-09T13:19:33;4.90;;;0.50;;
57307;SDS011;43152;50.968;18.214;2022-09-09T13:22:11;3.20;;;0.60;;
57307;SDS011;43152;50.968;18.214;2022-09-09T13:24:42;6.00;;;0.70;;
57307;SDS011;43152;50.968;18.214;2022-09-09T13:27:30;3.50;;;0.70;;
57307;SDS011;43152;50.968;18.214;2022-09-09T13:30:00;34.50;;;2.30;;
57307;SDS011;43152;50.968;18.214;2022-09-09T13:32:26;5.60;;;0.60;;
57307;SDS011;43152;50.968;18.214;2022-09-09T13:34:53;3.50;;;0.60;;
57307;SDS011;43152;50.968;18.214;2022-09-09T13:37:26;5.50;;;0.60;;
57307;SDS011;43152;50.968;18.214;2022-09-09T13:40:05;5.80;;;1.30;;
57307;SDS011;43152;50.968;18.214;2022-09-09T13:42:32;1.90;;;0.60;;
57307;SDS011;43152;50.968;18.214;2022-09-09T13:45:00;4.50;;;0.60;;
57307;SDS011;43152;50.968;18.214;2022-09-09T13:47:33;3.40;;;0.50;;
57307;SDS011;43152;50.968;18.214;2022-09-09T13:53:04;2.80;;;0.40;;
57307;SDS011;43152;50.968;18.214;2022-09-09T13:55:30;4.40;;;0.50;;
57307;SDS011;43152;50.968;18.214;2022-09-09T13:57:56;4.20;;;0.60;;
57307;SDS011;43152;50.968;18.214;2022-09-09T14:00:26;3.50;;;0.50;;
57307;SDS011;43152;50.968;18.214;2022-09-09T14:02:53;2.00;;;0.50;;
57307;SDS011;43152;50.968;18.214;2022-09-09T14:05:20;2.40;;;0.40;;
57307;SDS011;43152;50.968;18.214;2022-09-09T14:07:47;2.90;;;0.40;;
57307;SDS011;43152;50.968;18.214;2022-09-09T14:10:13;2.10;;;0.40;;
57307;SDS011;43152;50.968;18.214;2022-09-09T14:12:39;3.00;;;0.40;;
57307;SDS011;43152;50.968;18.214;2022-09-09T14:15:06;3.50;;;0.40;;
57307;SDS011;43152;50.968;18.214;2022-09-09T14:17:32;4.00;;;0.70;;
57307;SDS011;43152;50.968;18.214;2022-09-09T14:19:58;3.20;;;0.40;;
57307;SDS011;43152;50.968;18.214;2022-09-09T14:22:24;2.80;;;0.40;;
57307;SDS011;43152;50.968;18.214;2022-09-09T14:24:50;3.00;;;0.50;;
57307;SDS011;43152;50.968;18.214;2022-09-09T14:27:16;2.20;;;0.50;;
57307;SDS011;43152;50.968;18.214;2022-09-09T14:29:42;3.30;;;0.40;;
57307;SDS011;43152;50.968;18.214;2022-09-09T14:32:09;3.50;;;0.40;;
57307;SDS011;43152;50.968;18.214;2022-09-09T14:34:35;3.10;;;0.60;;
57307;SDS011;43152;50.968;18.214;2022-09-09T14:37:01;1.90;;;0.40;;
57307;SDS011;43152;50.968;18.214;2022-09-09T14:39:27;2.20;;;0.30;;
57307;SDS011;43152;50.968;18.214;2022-09-09T14:41:53;2.60;;;0.40;;
57307;SDS011;43152;50.968;18.214;2022-09-09T14:44:19;3.00;;;0.50;;
57307;SDS011;43152;50.968;18.214;2022-09-09T14:46:44;5.30;;;0.60;;
57307;SDS011;43152;50.968;18.214;2022-09-09T14:49:10;3.50;;;0.50;;
57307;SDS011;43152;50.968;18.214;2022-09-09T14:51:38;2.20;;;0.50;;
57307;SDS011;43152;50.968;18.214;2022-09-09T14:54:04;3.70;;;0.70;;
57307;SDS011;43152;50.968;18.214;2022-09-09T14:56:33;2.50;;;0.50;;
57307;SDS011;43152;50.968;18.214;2022-09-09T14:59:02;3.70;;;0.60;;
57307;SDS011;43152;50.968;18.214;2022-09-09T15:01:29;4.70;;;0.60;;
57307;SDS011;43152;50.968;18.214;2022-09-09T15:03:57;4.60;;;1.10;;
57307;SDS011;43152;50.968;18.214;2022-09-09T15:06:25;3.50;;;0.70;;
57307;SDS011;43152;50.968;18.214;2022-09-09T15:08:51;2.30;;;0.60;;
57307;SDS011;43152;50.968;18.214;2022-09-09T15:11:18;2.70;;;0.50;;
57307;SDS011;43152;50.968;18.214;2022-09-09T15:13:45;4.30;;;0.50;;
57307;SDS011;43152;50.968;18.214;2022-09-09T15:16:13;3.00;;;0.60;;
57307;SDS011;43152;50.968;18.214;2022-09-09T15:18:41;2.20;;;0.40;;
57307;SDS011;43152;50.968;18.214;2022-09-09T15:21:10;2.40;;;0.60;;
57307;SDS011;43152;50.968;18.214;2022-09-09T15:23:37;2.90;;;0.50;;
57307;SDS011;43152;50.968;18.214;2022-09-09T15:26:04;3.00;;;0.40;;
57307;SDS011;43152;50.968;18.214;2022-09-09T15:28:31;3.30;;;0.60;;
57307;SDS011;43152;50.968;18.214;2022-09-09T15:31:04;3.10;;;0.70;;
57307;SDS011;43152;50.968;18.214;2022-09-09T15:33:32;3.00;;;0.80;;
57307;SDS011;43152;50.968;18.214;2022-09-09T15:35:58;3.90;;;0.70;;
57307;SDS011;43152;50.968;18.214;2022-09-09T15:38:24;3.40;;;0.60;;
57307;SDS011;43152;50.968;18.214;2022-09-09T15:40:53;4.30;;;0.70;;
57307;SDS011;43152;50.968;18.214;2022-09-09T15:43:20;4.20;;;1.00;;
57307;SDS011;43152;50.968;18.214;2022-09-09T15:45:46;3.20;;;0.80;;
57307;SDS011;43152;50.968;18.214;2022-09-09T15:48:15;4.10;;;0.90;;
57307;SDS011;43152;50.968;18.214;2022-09-09T15:50:40;4.50;;;0.80;;
57307;SDS011;43152;50.968;18.214;2022-09-09T15:53:06;4.90;;;0.80;;
57307;SDS011;43152;50.968;18.214;2022-09-09T15:55:33;10.40;;;2.50;;
57307;SDS011;43152;50.968;18.214;2022-09-09T15:57:58;17.30;;;4.90;;
57307;SDS011;43152;50.968;18.214;2022-09-09T16:00:24;16.30;;;4.90;;
57307;SDS011;43152;50.968;18.214;2022-09-09T16:02:50;17.70;;;5.60;;
57307;SDS011;43152;50.968;18.214;2022-09-09T16:05:16;16.50;;;5.20;;
57307;SDS011;43152;50.968;18.214;2022-09-09T16:07:42;18.30;;;5.30;;
57307;SDS011;43152;50.968;18.214;2022-09-09T16:10:10;14.40;;;5.00;;
57307;SDS011;43152;50.968;18.214;2022-09-09T16:12:36;12.40;;;3.90;;
57307;SDS011;43152;50.968;18.214;2022-09-09T16:15:02;12.10;;;3.70;;
57307;SDS011;43152;50.968;18.214;2022-09-09T16:17:28;10.50;;;3.00;;
57307;SDS011;43152;50.968;18.214;2022-09-09T16:19:54;10.20;;;2.30;;
57307;SDS011;43152;50.968;18.214;2022-09-09T16:22:20;6.60;;;1.80;;
57307;SDS011;43152;50.968;18.214;2022-09-09T16:24:46;7.00;;;1.80;;
57307;SDS011;43152;50.968;18.214;2022-09-09T16:27:11;8.50;;;1.70;;
57307;SDS011;43152;50.968;18.214;2022-09-09T16:29:37;8.10;;;1.80;;
57307;SDS011;43152;50.968;18.214;2022-09-09T16:32:06;7.90;;;1.50;;
57307;SDS011;43152;50.968;18.214;2022-09-09T16:34:31;10.30;;;1.50;;
57307;SDS011;43152;50.968;18.214;2022-09-09T16:36:58;8.10;;;1.70;;
57307;SDS011;43152;50.968;18.214;2022-09-09T16:39:24;7.50;;;1.80;;
57307;SDS011;43152;50.968;18.214;2022-09-09T16:41:50;5.90;;;1.60;;
57307;SDS011;43152;50.968;18.214;2022-09-09T16:44:17;7.80;;;2.60;;
57307;SDS011;43152;50.968;18.214;2022-09-09T16:46:44;10.20;;;3.90;;
57307;SDS011;43152;50.968;18.214;2022-09-09T16:49:14;13.20;;;5.20;;
57307;SDS011;43152;50.968;18.214;2022-09-09T16:51:45;14.00;;;6.20;;
57307;SDS011;43152;50.968;18.214;2022-09-09T16:54:12;11.00;;;4.20;;
57307;SDS011;43152;50.968;18.214;2022-09-09T16:56:40;11.90;;;5.50;;
57307;SDS011;43152;50.968;18.214;2022-09-09T16:59:14;11.30;;;4.90;;